sensor_id;sensor_type;location;lat;lon;timestamp;P1;durP1;ratioP1;P2;durP2;ratioP2
84254;SDS011;74400;44.692;18.998;2024-01-25T00:00:20;30.25;;;12.80;;
84254;SDS011;74400;44.692;18.998;2024-01-25T00:02:46;29.52;;;12.50;;
84254;SDS011;74400;44.692;18.998;2024-01-25T00:05:12;30.48;;;12.68;;
84254;SDS011;74400;44.692;18.998;2024-01-25T00:07:47;29.42;;;12.15;;
84254;SDS011;74400;44.692;18.998;2024-01-25T00:10:14;23.70;;;11.90;;
84254;SDS011;74400;44.692;18.998;2024-01-25T00:12:41;21.75;;;10.18;;
84254;SDS011;74400;44.692;18.998;2024-01-25T00:15:10;24.52;;;9.88;;
84254;SDS011;74400;44.692;18.998;2024-01-25T00:17:36;27.38;;;10.55;;
84254;SDS011;74400;44.692;18.998;2024-01-25T00:20:02;22.35;;;9.65;;
84254;SDS011;74400;44.692;18.998;2024-01-25T00:22:29;20.60;;;8.32;;
84254;SDS011;74400;44.692;18.998;2024-01-25T00:24:54;20.75;;;8.32;;
84254;SDS011;74400;44.692;18.998;2024-01-25T00:27:20;22.67;;;10.45;;
84254;SDS011;74400;44.692;18.998;2024-01-25T00:29:46;24.45;;;10.00;;
84254;SDS011;74400;44.692;18.998;2024-01-25T00:32:11;26.52;;;10.25;;
84254;SDS011;74400;44.692;18.998;2024-01-25T00:34:37;20.70;;;9.52;;
84254;SDS011;74400;44.692;18.998;2024-01-25T00:37:03;21.73;;;9.85;;
84254;SDS011;74400;44.692;18.998;2024-01-25T00:39:29;18.15;;;10.07;;
84254;SDS011;74400;44.692;18.998;2024-01-25T00:41:57;25.38;;;10.13;;
84254;SDS011;74400;44.692;18.998;2024-01-25T00:44:29;20.55;;;9.25;;
84254;SDS011;74400;44.692;18.998;2024-01-25T00:46:55;23.90;;;9.82;;
84254;SDS011;74400;44.692;18.998;2024-01-25T00:49:21;23.45;;;9.93;;
84254;SDS011;74400;44.692;18.998;2024-01-25T00:54:14;21.90;;;9.63;;
84254;SDS011;74400;44.692;18.998;2024-01-25T00:56:40;29.63;;;11.30;;
84254;SDS011;74400;44.692;18.998;2024-01-25T00:59:06;27.98;;;11.48;;
84254;SDS011;74400;44.692;18.998;2024-01-25T01:01:32;30.92;;;12.30;;
84254;SDS011;74400;44.692;18.998;2024-01-25T01:03:58;30.90;;;13.20;;
84254;SDS011;74400;44.692;18.998;2024-01-25T01:06:24;32.70;;;13.90;;
84254;SDS011;74400;44.692;18.998;2024-01-25T01:08:51;41.35;;;15.48;;
84254;SDS011;74400;44.692;18.998;2024-01-25T01:11:18;44.22;;;14.93;;
84254;SDS011;74400;44.692;18.998;2024-01-25T01:13:44;35.08;;;15.18;;
84254;SDS011;74400;44.692;18.998;2024-01-25T01:16:10;42.05;;;15.90;;
84254;SDS011;74400;44.692;18.998;2024-01-25T01:18:35;57.67;;;21.00;;
84254;SDS011;74400;44.692;18.998;2024-01-25T01:21:03;40.63;;;15.52;;
84254;SDS011;74400;44.692;18.998;2024-01-25T01:23:29;34.78;;;15.35;;
84254;SDS011;74400;44.692;18.998;2024-01-25T01:25:55;46.28;;;20.30;;
84254;SDS011;74400;44.692;18.998;2024-01-25T01:28:21;40.42;;;16.15;;
84254;SDS011;74400;44.692;18.998;2024-01-25T01:30:46;33.30;;;13.15;;
84254;SDS011;74400;44.692;18.998;2024-01-25T01:33:12;27.70;;;10.73;;
84254;SDS011;74400;44.692;18.998;2024-01-25T01:35:38;24.92;;;11.88;;
84254;SDS011;74400;44.692;18.998;2024-01-25T01:38:03;30.90;;;13.45;;
84254;SDS011;74400;44.692;18.998;2024-01-25T01:40:29;32.30;;;11.75;;
84254;SDS011;74400;44.692;18.998;2024-01-25T01:42:58;28.95;;;11.25;;
84254;SDS011;74400;44.692;18.998;2024-01-25T01:45:25;27.17;;;12.02;;
84254;SDS011;74400;44.692;18.998;2024-01-25T01:47:52;30.23;;;10.45;;
84254;SDS011;74400;44.692;18.998;2024-01-25T01:50:18;30.45;;;10.82;;
84254;SDS011;74400;44.692;18.998;2024-01-25T01:52:44;29.10;;;10.55;;
84254;SDS011;74400;44.692;18.998;2024-01-25T01:55:10;22.58;;;11.07;;
84254;SDS011;74400;44.692;18.998;2024-01-25T01:57:36;25.70;;;12.68;;
84254;SDS011;74400;44.692;18.998;2024-01-25T02:00:03;31.33;;;12.98;;
84254;SDS011;74400;44.692;18.998;2024-01-25T02:02:36;29.63;;;11.70;;
84254;SDS011;74400;44.692;18.998;2024-01-25T02:05:02;31.15;;;13.68;;
84254;SDS011;74400;44.692;18.998;2024-01-25T02:07:28;33.88;;;14.45;;
84254;SDS011;74400;44.692;18.998;2024-01-25T02:09:55;27.30;;;12.63;;
84254;SDS011;74400;44.692;18.998;2024-01-25T02:12:21;23.70;;;9.90;;
84254;SDS011;74400;44.692;18.998;2024-01-25T02:14:46;27.45;;;12.10;;
84254;SDS011;74400;44.692;18.998;2024-01-25T02:17:12;23.63;;;9.95;;
84254;SDS011;74400;44.692;18.998;2024-01-25T02:19:38;23.08;;;9.48;;
84254;SDS011;74400;44.692;18.998;2024-01-25T02:22:04;17.50;;;8.80;;
84254;SDS011;74400;44.692;18.998;2024-01-25T02:24:30;24.38;;;10.25;;
84254;SDS011;74400;44.692;18.998;2024-01-25T02:26:56;22.48;;;9.52;;
84254;SDS011;74400;44.692;18.998;2024-01-25T02:29:22;20.17;;;9.30;;
84254;SDS011;74400;44.692;18.998;2024-01-25T02:31:48;22.58;;;9.20;;
84254;SDS011;74400;44.692;18.998;2024-01-25T02:34:14;27.02;;;10.55;;
84254;SDS011;74400;44.692;18.998;2024-01-25T02:36:40;31.92;;;12.50;;
84254;SDS011;74400;44.692;18.998;2024-01-25T02:39:05;25.95;;;11.88;;
84254;SDS011;74400;44.692;18.998;2024-01-25T02:41:31;22.13;;;10.77;;
84254;SDS011;74400;44.692;18.998;2024-01-25T02:43:57;21.88;;;9.73;;
84254;SDS011;74400;44.692;18.998;2024-01-25T02:46:23;18.52;;;8.80;;
84254;SDS011;74400;44.692;18.998;2024-01-25T02:48:49;13.05;;;7.25;;
84254;SDS011;74400;44.692;18.998;2024-01-25T02:51:14;16.95;;;7.70;;
84254;SDS011;74400;44.692;18.998;2024-01-25T02:53:40;19.05;;;9.18;;
84254;SDS011;74400;44.692;18.998;2024-01-25T02:56:06;19.17;;;8.80;;
84254;SDS011;74400;44.692;18.998;2024-01-25T02:58:32;16.45;;;9.07;;
84254;SDS011;74400;44.692;18.998;2024-01-25T03:00:58;18.45;;;8.20;;
84254;SDS011;74400;44.692;18.998;2024-01-25T03:03:24;17.00;;;8.38;;
84254;SDS011;74400;44.692;18.998;2024-01-25T03:05:53;17.42;;;8.27;;
84254;SDS011;74400;44.692;18.998;2024-01-25T03:08:19;16.58;;;8.23;;
84254;SDS011;74400;44.692;18.998;2024-01-25T03:10:45;20.73;;;10.63;;
84254;SDS011;74400;44.692;18.998;2024-01-25T03:13:14;21.52;;;11.02;;
84254;SDS011;74400;44.692;18.998;2024-01-25T03:15:39;16.55;;;9.10;;
84254;SDS011;74400;44.692;18.998;2024-01-25T03:18:05;18.60;;;8.52;;
84254;SDS011;74400;44.692;18.998;2024-01-25T03:20:30;15.43;;;7.90;;
84254;SDS011;74400;44.692;18.998;2024-01-25T03:22:56;14.82;;;7.90;;
84254;SDS011;74400;44.692;18.998;2024-01-25T03:25:22;13.23;;;7.13;;
84254;SDS011;74400;44.692;18.998;2024-01-25T03:27:47;11.77;;;7.28;;
84254;SDS011;74400;44.692;18.998;2024-01-25T03:30:14;19.48;;;9.75;;
84254;SDS011;74400;44.692;18.998;2024-01-25T03:32:39;25.50;;;12.30;;
84254;SDS011;74400;44.692;18.998;2024-01-25T03:35:05;20.45;;;10.38;;
84254;SDS011;74400;44.692;18.998;2024-01-25T03:37:31;18.35;;;8.65;;
84254;SDS011;74400;44.692;18.998;2024-01-25T03:39:57;23.73;;;11.05;;
84254;SDS011;74400;44.692;18.998;2024-01-25T03:42:23;18.45;;;8.90;;
84254;SDS011;74400;44.692;18.998;2024-01-25T03:44:48;17.35;;;8.10;;
84254;SDS011;74400;44.692;18.998;2024-01-25T03:47:14;19.63;;;9.75;;
84254;SDS011;74400;44.692;18.998;2024-01-25T03:49:40;21.83;;;9.00;;
84254;SDS011;74400;44.692;18.998;2024-01-25T03:52:05;16.45;;;7.72;;
84254;SDS011;74400;44.692;18.998;2024-01-25T03:54:31;12.32;;;7.13;;
84254;SDS011;74400;44.692;18.998;2024-01-25T03:56:57;13.35;;;7.88;;
84254;SDS011;74400;44.692;18.998;2024-01-25T03:59:23;13.73;;;6.90;;
84254;SDS011;74400;44.692;18.998;2024-01-25T04:01:48;14.65;;;6.72;;
84254;SDS011;74400;44.692;18.998;2024-01-25T04:04:14;11.35;;;6.43;;
84254;SDS011;74400;44.692;18.998;2024-01-25T04:06:41;13.43;;;7.30;;
84254;SDS011;74400;44.692;18.998;2024-01-25T04:09:11;14.75;;;7.25;;
84254;SDS011;74400;44.692;18.998;2024-01-25T04:11:37;15.75;;;7.90;;
84254;SDS011;74400;44.692;18.998;2024-01-25T04:14:03;18.10;;;7.82;;
84254;SDS011;74400;44.692;18.998;2024-01-25T04:16:30;20.02;;;10.43;;
84254;SDS011;74400;44.692;18.998;2024-01-25T04:18:56;19.60;;;10.23;;
84254;SDS011;74400;44.692;18.998;2024-01-25T04:21:21;18.13;;;8.82;;
84254;SDS011;74400;44.692;18.998;2024-01-25T04:23:47;21.42;;;8.68;;
84254;SDS011;74400;44.692;18.998;2024-01-25T04:26:14;18.10;;;9.00;;
84254;SDS011;74400;44.692;18.998;2024-01-25T04:28:41;10.15;;;5.75;;
84254;SDS011;74400;44.692;18.998;2024-01-25T04:31:07;10.70;;;5.88;;
84254;SDS011;74400;44.692;18.998;2024-01-25T04:33:33;14.35;;;5.50;;
84254;SDS011;74400;44.692;18.998;2024-01-25T04:35:59;12.27;;;5.55;;
84254;SDS011;74400;44.692;18.998;2024-01-25T04:38:25;12.35;;;5.80;;
84254;SDS011;74400;44.692;18.998;2024-01-25T04:40:50;11.82;;;5.30;;
84254;SDS011;74400;44.692;18.998;2024-01-25T04:43:16;9.52;;;5.05;;
84254;SDS011;74400;44.692;18.998;2024-01-25T04:45:41;9.38;;;5.45;;
84254;SDS011;74400;44.692;18.998;2024-01-25T04:48:07;7.97;;;4.32;;
84254;SDS011;74400;44.692;18.998;2024-01-25T04:50:33;9.13;;;5.40;;
84254;SDS011;74400;44.692;18.998;2024-01-25T04:53:01;11.38;;;6.32;;
84254;SDS011;74400;44.692;18.998;2024-01-25T04:55:27;8.07;;;4.80;;
84254;SDS011;74400;44.692;18.998;2024-01-25T04:57:53;10.23;;;4.95;;
84254;SDS011;74400;44.692;18.998;2024-01-25T05:02:47;12.60;;;5.80;;
84254;SDS011;74400;44.692;18.998;2024-01-25T05:05:12;11.02;;;5.47;;
84254;SDS011;74400;44.692;18.998;2024-01-25T05:07:38;11.30;;;5.15;;
84254;SDS011;74400;44.692;18.998;2024-01-25T05:10:05;13.80;;;5.93;;
84254;SDS011;74400;44.692;18.998;2024-01-25T05:12:31;28.73;;;11.52;;
84254;SDS011;74400;44.692;18.998;2024-01-25T05:14:57;23.58;;;12.15;;
84254;SDS011;74400;44.692;18.998;2024-01-25T05:17:23;27.60;;;14.30;;
84254;SDS011;74400;44.692;18.998;2024-01-25T05:19:49;29.38;;;13.45;;
84254;SDS011;74400;44.692;18.998;2024-01-25T05:22:15;25.63;;;12.60;;
84254;SDS011;74400;44.692;18.998;2024-01-25T05:24:41;14.27;;;5.00;;
84254;SDS011;74400;44.692;18.998;2024-01-25T05:27:07;10.38;;;3.72;;
84254;SDS011;74400;44.692;18.998;2024-01-25T05:29:33;7.80;;;3.28;;
84254;SDS011;74400;44.692;18.998;2024-01-25T05:35:14;6.20;;;3.00;;
84254;SDS011;74400;44.692;18.998;2024-01-25T05:37:41;5.93;;;3.33;;
84254;SDS011;74400;44.692;18.998;2024-01-25T05:40:07;6.07;;;3.40;;
84254;SDS011;74400;44.692;18.998;2024-01-25T05:42:34;6.93;;;3.22;;
84254;SDS011;74400;44.692;18.998;2024-01-25T05:45:01;8.90;;;3.88;;
84254;SDS011;74400;44.692;18.998;2024-01-25T05:47:28;7.78;;;4.15;;
84254;SDS011;74400;44.692;18.998;2024-01-25T05:49:57;8.93;;;4.20;;
84254;SDS011;74400;44.692;18.998;2024-01-25T05:52:23;8.23;;;3.45;;
84254;SDS011;74400;44.692;18.998;2024-01-25T05:58:49;8.76;;;4.12;;
84254;SDS011;74400;44.692;18.998;2024-01-25T06:01:15;8.07;;;3.97;;
84254;SDS011;74400;44.692;18.998;2024-01-25T06:03:49;9.15;;;3.90;;
84254;SDS011;74400;44.692;18.998;2024-01-25T06:06:15;7.35;;;3.90;;
84254;SDS011;74400;44.692;18.998;2024-01-25T06:08:42;5.55;;;2.88;;
84254;SDS011;74400;44.692;18.998;2024-01-25T06:11:11;5.80;;;3.63;;
84254;SDS011;74400;44.692;18.998;2024-01-25T06:13:37;6.75;;;3.10;;
84254;SDS011;74400;44.692;18.998;2024-01-25T06:16:03;6.65;;;3.60;;
84254;SDS011;74400;44.692;18.998;2024-01-25T06:18:29;13.38;;;6.80;;
84254;SDS011;74400;44.692;18.998;2024-01-25T06:24:04;9.95;;;5.32;;
84254;SDS011;74400;44.692;18.998;2024-01-25T06:26:30;9.23;;;5.03;;
84254;SDS011;74400;44.692;18.998;2024-01-25T06:28:56;10.63;;;5.05;;
84254;SDS011;74400;44.692;18.998;2024-01-25T06:31:25;12.65;;;6.35;;
84254;SDS011;74400;44.692;18.998;2024-01-25T06:33:51;17.10;;;9.07;;
84254;SDS011;74400;44.692;18.998;2024-01-25T06:36:18;22.08;;;10.60;;
84254;SDS011;74400;44.692;18.998;2024-01-25T06:42:49;15.68;;;8.50;;
84254;SDS011;74400;44.692;18.998;2024-01-25T06:45:14;12.48;;;7.70;;
84254;SDS011;74400;44.692;18.998;2024-01-25T06:47:40;14.27;;;6.80;;
84254;SDS011;74400;44.692;18.998;2024-01-25T06:50:06;17.73;;;9.00;;
84254;SDS011;74400;44.692;18.998;2024-01-25T06:52:32;22.38;;;12.45;;
84254;SDS011;74400;44.692;18.998;2024-01-25T06:59:06;15.45;;;7.72;;
84254;SDS011;74400;44.692;18.998;2024-01-25T07:01:32;13.32;;;6.20;;
84254;SDS011;74400;44.692;18.998;2024-01-25T07:03:58;12.68;;;6.28;;
84254;SDS011;74400;44.692;18.998;2024-01-25T07:06:23;15.45;;;6.53;;
84254;SDS011;74400;44.692;18.998;2024-01-25T07:08:49;15.35;;;7.03;;
84254;SDS011;74400;44.692;18.998;2024-01-25T07:11:15;10.52;;;6.60;;
84254;SDS011;74400;44.692;18.998;2024-01-25T07:13:42;14.93;;;7.63;;
84254;SDS011;74400;44.692;18.998;2024-01-25T07:16:08;13.80;;;7.72;;
84254;SDS011;74400;44.692;18.998;2024-01-25T07:18:33;11.32;;;6.68;;
84254;SDS011;74400;44.692;18.998;2024-01-25T07:20:59;13.35;;;6.90;;
84254;SDS011;74400;44.692;18.998;2024-01-25T07:23:25;15.60;;;8.27;;
84254;SDS011;74400;44.692;18.998;2024-01-25T07:28:49;9.98;;;4.85;;
84254;SDS011;74400;44.692;18.998;2024-01-25T07:31:19;16.48;;;6.75;;
84254;SDS011;74400;44.692;18.998;2024-01-25T07:33:45;13.00;;;6.20;;
84254;SDS011;74400;44.692;18.998;2024-01-25T07:36:11;11.10;;;5.88;;
84254;SDS011;74400;44.692;18.998;2024-01-25T07:38:38;10.07;;;4.82;;
84254;SDS011;74400;44.692;18.998;2024-01-25T07:41:05;14.85;;;6.20;;
84254;SDS011;74400;44.692;18.998;2024-01-25T07:43:31;34.95;;;17.52;;
84254;SDS011;74400;44.692;18.998;2024-01-25T07:45:57;33.22;;;17.65;;
84254;SDS011;74400;44.692;18.998;2024-01-25T07:48:22;20.58;;;11.57;;
84254;SDS011;74400;44.692;18.998;2024-01-25T07:50:49;21.75;;;11.20;;
84254;SDS011;74400;44.692;18.998;2024-01-25T07:53:15;20.48;;;9.50;;
84254;SDS011;74400;44.692;18.998;2024-01-25T07:55:42;16.67;;;8.70;;
84254;SDS011;74400;44.692;18.998;2024-01-25T07:58:10;16.10;;;7.22;;
84254;SDS011;74400;44.692;18.998;2024-01-25T08:03:42;12.95;;;7.45;;
84254;SDS011;74400;44.692;18.998;2024-01-25T08:06:08;10.95;;;6.47;;
84254;SDS011;74400;44.692;18.998;2024-01-25T08:08:34;12.80;;;7.18;;
84254;SDS011;74400;44.692;18.998;2024-01-25T08:11:03;14.88;;;7.85;;
84254;SDS011;74400;44.692;18.998;2024-01-25T08:13:34;15.85;;;7.60;;
84254;SDS011;74400;44.692;18.998;2024-01-25T08:18:55;11.68;;;6.20;;
84254;SDS011;74400;44.692;18.998;2024-01-25T08:21:21;9.07;;;5.53;;
84254;SDS011;74400;44.692;18.998;2024-01-25T08:23:47;13.30;;;5.82;;
84254;SDS011;74400;44.692;18.998;2024-01-25T08:29:48;12.05;;;6.65;;
84254;SDS011;74400;44.692;18.998;2024-01-25T08:32:14;10.80;;;5.72;;
84254;SDS011;74400;44.692;18.998;2024-01-25T08:34:40;11.35;;;6.55;;
84254;SDS011;74400;44.692;18.998;2024-01-25T08:37:06;15.38;;;7.57;;
84254;SDS011;74400;44.692;18.998;2024-01-25T08:39:32;14.07;;;7.43;;
84254;SDS011;74400;44.692;18.998;2024-01-25T08:42:04;19.15;;;10.10;;
84254;SDS011;74400;44.692;18.998;2024-01-25T08:44:31;14.35;;;8.50;;
84254;SDS011;74400;44.692;18.998;2024-01-25T08:46:58;13.32;;;7.28;;
84254;SDS011;74400;44.692;18.998;2024-01-25T08:49:23;14.75;;;6.90;;
84254;SDS011;74400;44.692;18.998;2024-01-25T08:51:49;13.20;;;7.13;;
84254;SDS011;74400;44.692;18.998;2024-01-25T08:54:15;14.27;;;7.82;;
84254;SDS011;74400;44.692;18.998;2024-01-25T08:56:41;12.85;;;5.82;;
84254;SDS011;74400;44.692;18.998;2024-01-25T08:59:07;11.93;;;6.70;;
84254;SDS011;74400;44.692;18.998;2024-01-25T09:01:32;18.58;;;11.15;;
84254;SDS011;74400;44.692;18.998;2024-01-25T09:03:58;19.90;;;11.18;;
84254;SDS011;74400;44.692;18.998;2024-01-25T09:06:28;26.58;;;13.68;;
84254;SDS011;74400;44.692;18.998;2024-01-25T09:08:55;22.50;;;13.50;;
84254;SDS011;74400;44.692;18.998;2024-01-25T09:11:21;30.45;;;17.13;;
84254;SDS011;74400;44.692;18.998;2024-01-25T09:13:47;27.75;;;14.20;;
84254;SDS011;74400;44.692;18.998;2024-01-25T09:16:13;22.95;;;12.65;;
84254;SDS011;74400;44.692;18.998;2024-01-25T09:18:39;24.88;;;13.73;;
84254;SDS011;74400;44.692;18.998;2024-01-25T09:21:05;24.92;;;12.00;;
84254;SDS011;74400;44.692;18.998;2024-01-25T09:23:31;21.42;;;11.98;;
84254;SDS011;74400;44.692;18.998;2024-01-25T09:25:56;25.70;;;12.95;;
84254;SDS011;74400;44.692;18.998;2024-01-25T09:32:45;22.75;;;12.93;;
84254;SDS011;74400;44.692;18.998;2024-01-25T09:35:11;18.50;;;11.18;;
84254;SDS011;74400;44.692;18.998;2024-01-25T09:37:37;18.92;;;11.23;;
84254;SDS011;74400;44.692;18.998;2024-01-25T09:40:03;20.25;;;11.68;;
84254;SDS011;74400;44.692;18.998;2024-01-25T09:42:29;20.13;;;10.27;;
84254;SDS011;74400;44.692;18.998;2024-01-25T09:44:55;18.00;;;10.38;;
84254;SDS011;74400;44.692;18.998;2024-01-25T09:47:21;19.15;;;9.95;;
84254;SDS011;74400;44.692;18.998;2024-01-25T09:49:48;21.40;;;12.05;;
84254;SDS011;74400;44.692;18.998;2024-01-25T09:52:14;21.98;;;12.48;;
84254;SDS011;74400;44.692;18.998;2024-01-25T09:54:43;21.42;;;12.02;;
84254;SDS011;74400;44.692;18.998;2024-01-25T09:57:13;26.55;;;13.25;;
84254;SDS011;74400;44.692;18.998;2024-01-25T09:59:43;25.88;;;12.98;;
84254;SDS011;74400;44.692;18.998;2024-01-25T10:02:18;24.13;;;13.55;;
84254;SDS011;74400;44.692;18.998;2024-01-25T10:04:47;24.13;;;12.90;;
84254;SDS011;74400;44.692;18.998;2024-01-25T10:07:14;24.60;;;13.40;;
84254;SDS011;74400;44.692;18.998;2024-01-25T10:09:40;21.67;;;12.57;;
84254;SDS011;74400;44.692;18.998;2024-01-25T10:12:07;22.08;;;13.77;;
84254;SDS011;74400;44.692;18.998;2024-01-25T10:14:33;25.65;;;13.70;;
84254;SDS011;74400;44.692;18.998;2024-01-25T10:21:15;26.38;;;14.90;;
84254;SDS011;74400;44.692;18.998;2024-01-25T10:26:59;27.50;;;14.57;;
84254;SDS011;74400;44.692;18.998;2024-01-25T10:29:25;28.05;;;15.73;;
84254;SDS011;74400;44.692;18.998;2024-01-25T10:31:51;31.27;;;15.18;;
84254;SDS011;74400;44.692;18.998;2024-01-25T10:34:18;27.55;;;13.68;;
84254;SDS011;74400;44.692;18.998;2024-01-25T10:36:45;24.27;;;13.55;;
84254;SDS011;74400;44.692;18.998;2024-01-25T10:39:11;21.08;;;11.88;;
84254;SDS011;74400;44.692;18.998;2024-01-25T10:41:45;22.13;;;12.57;;
84254;SDS011;74400;44.692;18.998;2024-01-25T10:44:14;21.17;;;11.98;;
84254;SDS011;74400;44.692;18.998;2024-01-25T10:46:39;22.55;;;12.00;;
84254;SDS011;74400;44.692;18.998;2024-01-25T10:49:08;21.48;;;12.48;;
84254;SDS011;74400;44.692;18.998;2024-01-25T10:51:34;19.48;;;11.55;;
84254;SDS011;74400;44.692;18.998;2024-01-25T10:54:00;22.25;;;11.98;;
84254;SDS011;74400;44.692;18.998;2024-01-25T10:56:26;20.17;;;11.20;;
84254;SDS011;74400;44.692;18.998;2024-01-25T10:58:53;21.10;;;11.02;;
84254;SDS011;74400;44.692;18.998;2024-01-25T11:01:19;25.25;;;12.77;;
84254;SDS011;74400;44.692;18.998;2024-01-25T11:03:46;19.00;;;10.95;;
84254;SDS011;74400;44.692;18.998;2024-01-25T11:09:18;21.00;;;11.48;;
84254;SDS011;74400;44.692;18.998;2024-01-25T11:11:46;19.67;;;11.02;;
84254;SDS011;74400;44.692;18.998;2024-01-25T11:14:14;20.27;;;10.45;;
84254;SDS011;74400;44.692;18.998;2024-01-25T11:19:49;17.60;;;10.00;;
84254;SDS011;74400;44.692;18.998;2024-01-25T11:22:18;14.93;;;9.70;;
84254;SDS011;74400;44.692;18.998;2024-01-25T11:24:45;15.57;;;9.05;;
84254;SDS011;74400;44.692;18.998;2024-01-25T11:27:14;19.42;;;9.52;;
84254;SDS011;74400;44.692;18.998;2024-01-25T11:29:41;17.23;;;9.98;;
84254;SDS011;74400;44.692;18.998;2024-01-25T11:32:07;15.45;;;9.73;;
84254;SDS011;74400;44.692;18.998;2024-01-25T11:34:34;17.08;;;10.98;;
84254;SDS011;74400;44.692;18.998;2024-01-25T11:37:00;14.07;;;9.18;;
84254;SDS011;74400;44.692;18.998;2024-01-25T11:39:26;16.60;;;8.98;;
84254;SDS011;74400;44.692;18.998;2024-01-25T11:41:52;15.30;;;7.90;;
84254;SDS011;74400;44.692;18.998;2024-01-25T11:44:18;10.30;;;7.10;;
84254;SDS011;74400;44.692;18.998;2024-01-25T11:46:44;13.70;;;7.97;;
84254;SDS011;74400;44.692;18.998;2024-01-25T11:49:10;15.63;;;7.18;;
84254;SDS011;74400;44.692;18.998;2024-01-25T11:51:36;11.50;;;6.57;;
84254;SDS011;74400;44.692;18.998;2024-01-25T11:54:01;11.32;;;7.57;;
84254;SDS011;74400;44.692;18.998;2024-01-25T11:56:31;12.60;;;7.72;;
84254;SDS011;74400;44.692;18.998;2024-01-25T11:58:59;14.40;;;7.82;;
84254;SDS011;74400;44.692;18.998;2024-01-25T12:01:25;12.35;;;6.97;;
84254;SDS011;74400;44.692;18.998;2024-01-25T12:03:52;10.02;;;6.07;;
84254;SDS011;74400;44.692;18.998;2024-01-25T12:10:02;11.40;;;7.18;;
84254;SDS011;74400;44.692;18.998;2024-01-25T12:12:30;11.53;;;7.07;;
84254;SDS011;74400;44.692;18.998;2024-01-25T12:14:59;8.57;;;6.25;;
84254;SDS011;74400;44.692;18.998;2024-01-25T12:17:43;14.50;;;6.82;;
84254;SDS011;74400;44.692;18.998;2024-01-25T12:20:09;7.90;;;5.40;;
84254;SDS011;74400;44.692;18.998;2024-01-25T12:22:41;8.77;;;5.55;;
84254;SDS011;74400;44.692;18.998;2024-01-25T12:25:10;9.38;;;5.43;;
84254;SDS011;74400;44.692;18.998;2024-01-25T12:27:39;7.78;;;4.95;;
84254;SDS011;74400;44.692;18.998;2024-01-25T12:30:06;7.80;;;5.30;;
84254;SDS011;74400;44.692;18.998;2024-01-25T12:32:35;8.57;;;5.20;;
84254;SDS011;74400;44.692;18.998;2024-01-25T12:35:01;10.30;;;5.97;;
84254;SDS011;74400;44.692;18.998;2024-01-25T12:37:27;10.65;;;6.72;;
84254;SDS011;74400;44.692;18.998;2024-01-25T12:39:53;9.40;;;6.07;;
84254;SDS011;74400;44.692;18.998;2024-01-25T12:42:19;8.68;;;5.32;;
84254;SDS011;74400;44.692;18.998;2024-01-25T12:44:46;8.57;;;4.68;;
84254;SDS011;74400;44.692;18.998;2024-01-25T12:50:52;8.32;;;4.10;;
84254;SDS011;74400;44.692;18.998;2024-01-25T12:53:19;9.48;;;4.28;;
84254;SDS011;74400;44.692;18.998;2024-01-25T12:55:49;7.82;;;4.45;;
84254;SDS011;74400;44.692;18.998;2024-01-25T12:58:17;7.72;;;4.13;;
84254;SDS011;74400;44.692;18.998;2024-01-25T13:00:46;8.55;;;3.80;;
84254;SDS011;74400;44.692;18.998;2024-01-25T13:03:12;5.22;;;3.95;;
84254;SDS011;74400;44.692;18.998;2024-01-25T13:05:38;5.57;;;3.65;;
84254;SDS011;74400;44.692;18.998;2024-01-25T13:08:06;7.03;;;3.70;;
84254;SDS011;74400;44.692;18.998;2024-01-25T13:10:32;7.20;;;4.18;;
84254;SDS011;74400;44.692;18.998;2024-01-25T13:12:59;7.15;;;4.85;;
84254;SDS011;74400;44.692;18.998;2024-01-25T13:15:28;7.00;;;4.00;;
84254;SDS011;74400;44.692;18.998;2024-01-25T13:17:54;8.23;;;4.50;;
84254;SDS011;74400;44.692;18.998;2024-01-25T13:20:23;9.48;;;4.30;;
84254;SDS011;74400;44.692;18.998;2024-01-25T13:22:49;7.90;;;4.30;;
84254;SDS011;74400;44.692;18.998;2024-01-25T13:25:15;8.35;;;4.45;;
84254;SDS011;74400;44.692;18.998;2024-01-25T13:27:41;7.90;;;4.63;;
84254;SDS011;74400;44.692;18.998;2024-01-25T13:30:08;10.80;;;4.35;;
84254;SDS011;74400;44.692;18.998;2024-01-25T13:32:37;10.80;;;5.18;;
84254;SDS011;74400;44.692;18.998;2024-01-25T13:38:01;7.15;;;4.38;;
84254;SDS011;74400;44.692;18.998;2024-01-25T13:43:46;11.05;;;5.40;;
84254;SDS011;74400;44.692;18.998;2024-01-25T13:46:14;9.02;;;4.90;;
84254;SDS011;74400;44.692;18.998;2024-01-25T13:48:42;10.23;;;5.45;;
84254;SDS011;74400;44.692;18.998;2024-01-25T13:51:08;10.00;;;5.05;;
84254;SDS011;74400;44.692;18.998;2024-01-25T13:53:34;9.20;;;5.30;;
84254;SDS011;74400;44.692;18.998;2024-01-25T13:56:03;4.97;;;3.50;;
84254;SDS011;74400;44.692;18.998;2024-01-25T13:58:30;6.72;;;3.70;;
84254;SDS011;74400;44.692;18.998;2024-01-25T14:00:56;9.25;;;4.70;;
84254;SDS011;74400;44.692;18.998;2024-01-25T14:03:22;8.15;;;3.67;;
84254;SDS011;74400;44.692;18.998;2024-01-25T14:08:27;12.15;;;6.47;;
84254;SDS011;74400;44.692;18.998;2024-01-25T14:10:53;11.10;;;4.57;;
84254;SDS011;74400;44.692;18.998;2024-01-25T14:13:22;10.13;;;4.07;;
84254;SDS011;74400;44.692;18.998;2024-01-25T14:15:57;9.57;;;4.40;;
84254;SDS011;74400;44.692;18.998;2024-01-25T14:18:27;10.13;;;4.97;;
84254;SDS011;74400;44.692;18.998;2024-01-25T14:20:55;12.73;;;7.13;;
84254;SDS011;74400;44.692;18.998;2024-01-25T14:23:21;16.83;;;7.68;;
84254;SDS011;74400;44.692;18.998;2024-01-25T14:25:51;10.07;;;5.13;;
84254;SDS011;74400;44.692;18.998;2024-01-25T14:28:21;13.30;;;6.28;;
84254;SDS011;74400;44.692;18.998;2024-01-25T14:30:47;8.75;;;4.45;;
84254;SDS011;74400;44.692;18.998;2024-01-25T14:36:14;14.65;;;6.40;;
84254;SDS011;74400;44.692;18.998;2024-01-25T14:38:42;18.50;;;7.85;;
84254;SDS011;74400;44.692;18.998;2024-01-25T14:41:09;9.13;;;5.20;;
84254;SDS011;74400;44.692;18.998;2024-01-25T14:43:39;8.68;;;4.88;;
84254;SDS011;74400;44.692;18.998;2024-01-25T14:46:06;14.73;;;6.47;;
84254;SDS011;74400;44.692;18.998;2024-01-25T14:48:34;13.68;;;6.60;;
84254;SDS011;74400;44.692;18.998;2024-01-25T14:51:00;13.23;;;6.30;;
84254;SDS011;74400;44.692;18.998;2024-01-25T14:53:25;13.20;;;7.18;;
84254;SDS011;74400;44.692;18.998;2024-01-25T14:55:51;15.52;;;8.48;;
84254;SDS011;74400;44.692;18.998;2024-01-25T14:58:18;23.27;;;11.27;;
84254;SDS011;74400;44.692;18.998;2024-01-25T15:00:51;21.25;;;10.18;;
84254;SDS011;74400;44.692;18.998;2024-01-25T15:03:17;22.90;;;9.88;;
84254;SDS011;74400;44.692;18.998;2024-01-25T15:05:44;25.13;;;10.73;;
84254;SDS011;74400;44.692;18.998;2024-01-25T15:08:10;27.33;;;13.15;;
84254;SDS011;74400;44.692;18.998;2024-01-25T15:10:36;19.88;;;9.25;;
84254;SDS011;74400;44.692;18.998;2024-01-25T15:13:02;23.17;;;10.38;;
84254;SDS011;74400;44.692;18.998;2024-01-25T15:15:28;19.73;;;8.32;;
84254;SDS011;74400;44.692;18.998;2024-01-25T15:17:56;13.18;;;6.50;;
84254;SDS011;74400;44.692;18.998;2024-01-25T15:20:23;14.60;;;7.45;;
84254;SDS011;74400;44.692;18.998;2024-01-25T15:22:50;13.73;;;7.07;;
84254;SDS011;74400;44.692;18.998;2024-01-25T15:25:17;14.57;;;6.30;;
84254;SDS011;74400;44.692;18.998;2024-01-25T15:27:46;12.82;;;7.20;;